KPVW/PVW METAR and TAF weather

Enter ICAO airport designator
Station Type Date Time Source
KPVW METAR 2021/03/02 16:55 UTC NOAA

KPVW 021655Z AUTO 24013KT 10SM CLR 10/M11 A3023 RMK AO2 T00991110


Station Type Date Time Source
KPVW Decoded METAR 2021/03/02 16:55 UTC NOAA

Plainview, Hale County Airport, TX, United States (KPVW) 34-10-05N 101-43-02W
Mar 02, 2021 - 11:55 AM EST / 2021.03.02 1655 UTC
Wind: from the WSW (240 degrees) at 15 MPH (13 KT):0
Visibility: 10 mile(s):0
Sky conditions: clear
Temperature: 49.8 F (9.9 C)
Dew Point: 12.2 F (-11.0 C)
Relative Humidity: 21%
Pressure (altimeter): 30.23 in. Hg (1023 hPa)
ob: KPVW 021655Z AUTO 24013KT 10SM CLR 10/M11 A3023 RMK AO2 T00991110
cycle: 17

Station Type Date Time Source
KPVW TAF 2021/03/02 12:22 UTC NOAA

TAF KPVW 021120Z 0212/0312 25007KT P6SM SKC
FM021900 22011KT P6SM SKC

Example: see airport list